Time;durP1;ratioP1;P1;durP2;ratioP2;P2;SDS_P1;SDS_P2;PMS_P1;PMS_P2;Temp;Humidity;BMP_temperature;BMP_pressure;BME280_temperature;BME280_humidity;BME280_pressure;Samples;Min_cycle;Max_cycle;Signal;HPM_P1;HPM_P2
2023/07/15 00:02:21;;;;;;;12.93;11.25;;;23.30;99.90;;;;;;5249356;28;20077;-71
2023/07/15 00:04:52;;;;;;;14.80;11.60;;;23.30;99.90;;;;;;5249494;28;20511;-71
2023/07/15 00:07:23;;;;;;;12.55;10.45;;;23.10;99.90;;;;;;5249747;28;20436;-70
2023/07/15 00:09:54;;;;;;;13.30;10.60;;;23.10;99.90;;;;;;5249490;28;20028;-71
2023/07/15 00:12:25;;;;;;;12.32;10.40;;;23.20;99.90;;;;;;5249368;28;20119;-71
2023/07/15 00:14:56;;;;;;;15.40;11.63;;;23.20;99.90;;;;;;5249462;28;20104;-71
2023/07/15 00:17:27;;;;;;;12.95;11.45;;;23.00;99.90;;;;;;5249584;28;20021;-70
2023/07/15 00:19:58;;;;;;;14.75;11.95;;;23.00;99.90;;;;;;5249684;28;20032;-71
2023/07/15 00:22:29;;;;;;;13.07;10.93;;;23.10;99.90;;;;;;5249449;28;20056;-71
2023/07/15 00:24:59;;;;;;;14.38;11.70;;;23.00;99.90;;;;;;5249103;28;20337;-71
2023/07/15 00:27:30;;;;;;;14.27;11.38;;;22.90;99.90;;;;;;5249221;28;20056;-71
2023/07/15 00:30:02;;;;;;;14.82;10.82;;;22.80;99.90;;;;;;5249061;28;20020;-71
2023/07/15 00:32:32;;;;;;;13.68;11.07;;;22.80;99.90;;;;;;5248956;28;20388;-71
2023/07/15 00:35:13;;;;;;;15.75;11.00;;;22.80;99.90;;;;;;5249115;28;20036;-70
2023/07/15 00:37:44;;;;;;;12.65;10.18;;;22.90;99.90;;;;;;5249078;28;20029;-71
2023/07/15 00:40:15;;;;;;;13.60;11.32;;;22.80;99.90;;;;;;5248964;28;20036;-71
2023/07/15 00:43:24;;;;;;;14.27;10.63;;;22.80;99.90;;;;;;5248716;28;20036;-71
2023/07/15 00:46:21;;;;;;;13.63;10.68;;;22.70;99.90;;;;;;5248825;28;20119;-71
2023/07/15 00:49:32;;;;;;;13.88;10.27;;;22.80;99.90;;;;;;5248798;28;20111;-71
2023/07/15 00:52:14;;;;;;;14.43;10.02;;;22.90;99.90;;;;;;5214715;28;20032;-70
2023/07/15 00:54:48;;;;;;;11.52;9.90;;;22.80;99.90;;;;;;5248687;28;20032;-71
2023/07/15 00:57:21;;;;;;;15.07;11.00;;;22.70;99.90;;;;;;5247965;28;20019;-71
2023/07/15 00:59:58;;;;;;;12.85;10.55;;;22.80;99.90;;;;;;5248530;28;20020;-71
2023/07/15 01:02:30;;;;;;;15.35;12.52;;;22.80;99.90;;;;;;5248226;28;20056;-71
2023/07/15 01:05:00;;;;;;;18.70;13.43;;;22.80;99.90;;;;;;5248328;28;20028;-71
2023/07/15 01:07:31;;;;;;;18.40;12.63;;;22.80;99.90;;;;;;5248457;28;20038;-70
2023/07/15 01:10:02;;;;;;;15.15;12.73;;;23.00;99.90;;;;;;5248315;28;20407;-71
2023/07/15 01:12:33;;;;;;;14.13;12.65;;;23.10;99.90;;;;;;5248139;28;20068;-70
2023/07/15 01:15:04;;;;;;;13.40;11.75;;;23.00;99.90;;;;;;5248091;28;20058;-71
2023/07/15 01:17:35;;;;;;;15.70;14.10;;;23.10;99.90;;;;;;5248191;28;20415;-71
2023/07/15 01:20:07;;;;;;;19.58;15.98;;;23.30;99.90;;;;;;5248077;28;20024;-70
2023/07/15 01:22:38;;;;;;;18.50;16.63;;;23.40;99.90;;;;;;5247932;28;20028;-71
2023/07/15 01:25:10;;;;;;;20.35;16.02;;;23.50;99.90;;;;;;5248155;28;20034;-71
2023/07/15 01:27:40;;;;;;;21.92;15.07;;;23.60;99.90;;;;;;5247850;28;20082;-70
2023/07/15 01:30:11;;;;;;;24.48;14.68;;;23.70;99.90;;;;;;5247882;28;20028;-71
2023/07/15 01:32:42;;;;;;;22.90;14.35;;;23.80;99.90;;;;;;5248037;28;20047;-70
2023/07/15 01:35:13;;;;;;;19.10;12.30;;;23.80;99.90;;;;;;5248164;28;20028;-71
2023/07/15 01:37:43;;;;;;;21.00;13.25;;;23.90;99.90;;;;;;5248136;28;20029;-71
2023/07/15 01:40:14;;;;;;;21.42;13.20;;;23.80;99.90;;;;;;5247835;28;20412;-71
2023/07/15 01:42:45;;;;;;;18.25;13.10;;;23.90;99.90;;;;;;5247663;28;20423;-71
2023/07/15 01:45:16;;;;;;;20.92;14.20;;;23.80;99.90;;;;;;5247717;28;20077;-71
2023/07/15 01:47:47;;;;;;;22.00;14.95;;;23.80;99.90;;;;;;5247542;28;20032;-71
2023/07/15 01:50:17;;;;;;;22.83;14.40;;;23.90;99.90;;;;;;5247457;28;20453;-71
2023/07/15 01:52:48;;;;;;;26.02;14.48;;;23.90;99.90;;;;;;5247309;28;20067;-71
2023/07/15 01:55:19;;;;;;;21.95;13.75;;;23.90;99.90;;;;;;5247579;28;20028;-71
2023/07/15 01:57:50;;;;;;;23.05;14.93;;;24.00;99.90;;;;;;5247447;28;20607;-71
2023/07/15 02:00:20;;;;;;;19.95;14.00;;;24.00;99.90;;;;;;5247409;28;20025;-71
2023/07/15 02:02:51;;;;;;;22.55;14.98;;;23.90;99.90;;;;;;5247200;28;20059;-71
2023/07/15 02:05:22;;;;;;;21.30;14.90;;;23.90;99.90;;;;;;5247421;28;20067;-71
2023/07/15 02:07:53;;;;;;;22.45;15.75;;;23.90;99.90;;;;;;5247197;28;20033;-72
2023/07/15 02:10:24;;;;;;;22.45;14.23;;;24.00;99.90;;;;;;5246127;28;20028;-71
2023/07/15 02:12:55;;;;;;;18.85;14.15;;;23.90;99.90;;;;;;5247363;28;20036;-71
2023/07/15 02:15:26;;;;;;;21.05;14.45;;;23.90;99.90;;;;;;5247388;28;20017;-71
2023/07/15 02:17:58;;;;;;;23.45;15.35;;;24.00;99.90;;;;;;5247204;28;20409;-71
2023/07/15 02:20:29;;;;;;;19.25;13.70;;;24.00;99.90;;;;;;5247185;28;20029;-71
2023/07/15 02:22:59;;;;;;;23.60;15.10;;;24.00;99.90;;;;;;5247226;28;20040;-70
2023/07/15 02:25:32;;;;;;;25.38;15.43;;;24.00;99.90;;;;;;5247280;28;20028;-71
2023/07/15 02:28:03;;;;;;;22.35;13.98;;;24.00;99.90;;;;;;5246977;28;20025;-71
2023/07/15 02:30:34;;;;;;;18.15;12.95;;;24.00;99.90;;;;;;5246959;28;20032;-71
2023/07/15 02:33:06;;;;;;;22.73;13.50;;;23.90;99.90;;;;;;5246901;28;20063;-70
2023/07/15 02:35:40;;;;;;;19.52;13.32;;;24.00;99.90;;;;;;5246991;28;20052;-70
2023/07/15 02:38:11;;;;;;;19.55;12.68;;;24.00;99.90;;;;;;5246938;28;20024;-71
2023/07/15 02:40:42;;;;;;;17.88;12.35;;;23.90;99.90;;;;;;5246984;28;20027;-71
2023/07/15 02:43:12;;;;;;;19.55;13.73;;;24.00;99.90;;;;;;5247030;28;20032;-71
2023/07/15 02:45:47;;;;;;;19.70;12.05;;;24.00;99.90;;;;;;5247117;28;20028;-71
2023/07/15 02:48:21;;;;;;;22.27;12.32;;;23.90;99.90;;;;;;5247182;28;20593;-71
2023/07/15 02:50:54;;;;;;;17.10;11.73;;;24.00;99.90;;;;;;5246955;28;20372;-71
2023/07/15 02:53:26;;;;;;;21.13;12.60;;;23.90;99.90;;;;;;5246792;28;20047;-71
2023/07/15 02:55:56;;;;;;;17.13;12.43;;;23.90;99.90;;;;;;5246846;28;20031;-71
2023/07/15 02:58:27;;;;;;;19.05;12.90;;;23.90;99.90;;;;;;5246863;28;20484;-70
2023/07/15 03:00:58;;;;;;;17.38;12.07;;;24.00;99.90;;;;;;5246740;28;20032;-71
2023/07/15 03:03:30;;;;;;;21.63;13.07;;;23.90;99.90;;;;;;5246450;28;20041;-71
2023/07/15 03:06:01;;;;;;;20.65;13.02;;;24.00;99.90;;;;;;5246780;28;20024;-71
2023/07/15 03:08:32;;;;;;;20.00;13.10;;;24.00;99.90;;;;;;5246619;28;20484;-71
2023/07/15 03:11:07;;;;;;;22.83;13.35;;;23.90;99.90;;;;;;5245451;28;20028;-71
2023/07/15 03:13:38;;;;;;;25.38;13.38;;;24.00;99.90;;;;;;5246645;28;20029;-71
2023/07/15 03:16:08;;;;;;;16.55;11.95;;;24.00;99.90;;;;;;5246528;28;20369;-71
2023/07/15 03:18:39;;;;;;;19.02;11.90;;;24.00;99.90;;;;;;5246503;28;20075;-71
2023/07/15 03:21:10;;;;;;;20.08;12.75;;;24.00;99.90;;;;;;5249514;28;20103;-71
2023/07/15 03:23:41;;;;;;;18.55;12.43;;;24.00;99.90;;;;;;5715781;23;20544;-70
2023/07/15 03:26:11;;;;;;;20.98;12.05;;;24.00;99.90;;;;;;5249208;28;20491;-71
2023/07/15 03:28:42;;;;;;;18.60;12.98;;;24.10;99.90;;;;;;5249059;28;20047;-71
2023/07/15 03:31:13;;;;;;;21.65;12.32;;;24.10;99.90;;;;;;5250243;28;20154;-71
2023/07/15 03:33:44;;;;;;;20.48;11.68;;;24.10;99.90;;;;;;5250039;28;20029;-71
2023/07/15 03:36:15;;;;;;;21.23;11.57;;;24.10;99.90;;;;;;5250235;28;20027;-71
2023/07/15 03:38:45;;;;;;;16.90;11.68;;;24.10;99.90;;;;;;5250057;28;20025;-71
2023/07/15 03:41:16;;;;;;;18.40;11.40;;;24.20;99.90;;;;;;5250103;28;20056;-70
2023/07/15 03:43:47;;;;;;;18.70;10.38;;;24.20;99.90;;;;;;5248855;28;20021;-70
2023/07/15 03:46:18;;;;;;;16.60;11.55;;;24.30;99.90;;;;;;5248837;28;20131;-71
2023/07/15 03:48:48;;;;;;;18.38;9.90;;;24.30;99.90;;;;;;5250152;28;20039;-71
2023/07/15 03:51:19;;;;;;;18.50;11.20;;;24.30;99.90;;;;;;5248579;28;20031;-71
2023/07/15 03:53:50;;;;;;;25.55;10.65;;;24.40;99.90;;;;;;5249748;28;20033;-71
2023/07/15 03:56:21;;;;;;;18.40;12.05;;;24.40;99.90;;;;;;5250319;28;20031;-71
2023/07/15 03:58:52;;;;;;;18.77;10.98;;;24.40;99.90;;;;;;5248703;28;20036;-71
2023/07/15 04:01:23;;;;;;;21.65;10.80;;;24.50;99.90;;;;;;5248618;28;20463;-70
2023/07/15 04:03:53;;;;;;;17.20;9.48;;;24.50;99.90;;;;;;5249759;28;20029;-71
2023/07/15 04:06:24;;;;;;;15.80;10.60;;;24.60;99.90;;;;;;5248493;28;20090;-71
2023/07/15 04:08:55;;;;;;;17.45;9.32;;;24.60;99.90;;;;;;5249566;28;20468;-70
2023/07/15 04:11:26;;;;;;;19.77;9.80;;;24.70;99.90;;;;;;5249523;28;20036;-71
2023/07/15 04:13:57;;;;;;;22.75;10.50;;;24.70;99.90;;;;;;5249492;28;20040;-71
2023/07/15 04:16:29;;;;;;;15.07;9.55;;;24.80;99.90;;;;;;5249598;28;20020;-70
2023/07/15 04:19:00;;;;;;;18.30;9.63;;;24.80;99.90;;;;;;5249440;28;20036;-71
2023/07/15 04:21:31;;;;;;;17.52;8.80;;;24.90;99.90;;;;;;5249418;28;20032;-71
2023/07/15 04:24:03;;;;;;;15.68;8.10;;;24.90;99.90;;;;;;5248972;28;20544;-71
2023/07/15 04:26:34;;;;;;;15.35;8.32;;;25.00;99.90;;;;;;5247880;28;20098;-71
2023/07/15 04:29:06;;;;;;;15.32;8.00;;;25.00;99.90;;;;;;5249061;28;20025;-71
2023/07/15 04:31:37;;;;;;;14.30;9.15;;;25.10;99.90;;;;;;5247878;28;20064;-71
2023/07/15 04:34:08;;;;;;;14.88;9.52;;;25.10;99.90;;;;;;5249043;28;20068;-71
2023/07/15 04:36:38;;;;;;;12.57;10.07;;;25.20;99.90;;;;;;5248983;28;20113;-71
2023/07/15 04:39:09;;;;;;;14.70;9.57;;;25.40;99.90;;;;;;5248913;28;20090;-71
2023/07/15 04:41:40;;;;;;;17.85;9.13;;;25.40;99.90;;;;;;5248925;28;20044;-71
2023/07/15 04:44:11;;;;;;;13.60;9.15;;;25.40;99.90;;;;;;5248751;28;20411;-71
2023/07/15 04:46:42;;;;;;;12.90;7.65;;;25.50;99.90;;;;;;5249316;28;20112;-71
2023/07/15 04:49:15;;;;;;;15.85;7.18;;;25.60;99.90;;;;;;5248804;28;20840;-71
2023/07/15 04:51:46;;;;;;;17.60;8.07;;;25.60;99.90;;;;;;5248603;28;20033;-71
2023/07/15 04:54:17;;;;;;;11.90;6.95;;;25.70;99.90;;;;;;5248496;28;20024;-71
2023/07/15 04:56:48;;;;;;;16.98;8.20;;;25.80;99.90;;;;;;5248591;28;20040;-70
2023/07/15 04:59:19;;;;;;;12.85;7.25;;;25.80;99.90;;;;;;5248612;28;20036;-71
2023/07/15 05:01:51;;;;;;;11.93;8.10;;;25.90;99.90;;;;;;5248398;28;20029;-71
2023/07/15 05:04:22;;;;;;;19.05;8.00;;;26.00;99.90;;;;;;5248497;28;20032;-71
2023/07/15 05:06:53;;;;;;;16.33;9.30;;;26.00;99.90;;;;;;5248522;28;20040;-71
2023/07/15 05:09:25;;;;;;;15.40;7.78;;;26.10;99.90;;;;;;5248609;28;20080;-73
2023/07/15 05:11:57;;;;;;;12.32;7.57;;;26.00;99.90;;;;;;5248311;28;20052;-70
2023/07/15 05:14:27;;;;;;;14.77;9.23;;;25.90;99.90;;;;;;5248364;28;20024;-71
2023/07/15 05:16:58;;;;;;;13.43;10.38;;;25.80;99.90;;;;;;5248370;28;20020;-72
2023/07/15 05:19:29;;;;;;;12.40;8.77;;;25.80;99.90;;;;;;5248215;28;20074;-70
2023/07/15 05:22:01;;;;;;;12.85;8.90;;;25.70;99.90;;;;;;5247973;28;20029;-72
2023/07/15 05:24:32;;;;;;;13.80;8.20;;;25.70;99.90;;;;;;5247823;28;20098;-73
2023/07/15 05:27:03;;;;;;;22.60;8.85;;;25.70;99.90;;;;;;5248115;28;20724;-72
2023/07/15 05:29:34;;;;;;;13.63;8.80;;;25.70;99.90;;;;;;5247833;28;20060;-73
2023/07/15 05:32:05;;;;;;;12.27;8.93;;;25.80;99.90;;;;;;5247932;28;20056;-73
2023/07/15 05:34:36;;;;;;;20.80;8.90;;;25.80;99.90;;;;;;5247863;28;20115;-72
2023/07/15 05:37:07;;;;;;;13.13;9.32;;;25.70;99.90;;;;;;5247832;28;20099;-72
2023/07/15 05:39:38;;;;;;;13.40;8.30;;;25.80;99.90;;;;;;5247675;28;20029;-72
2023/07/15 05:42:09;;;;;;;14.00;8.07;;;25.80;99.90;;;;;;5247495;28;20048;-72
2023/07/15 05:44:39;;;;;;;16.45;9.00;;;25.80;99.90;;;;;;5247549;28;20092;-72
2023/07/15 05:47:10;;;;;;;13.13;8.77;;;25.80;99.90;;;;;;5247600;28;20033;-72
2023/07/15 05:49:41;;;;;;;12.20;9.10;;;26.10;99.90;;;;;;5247418;28;20016;-72
2023/07/15 05:52:12;;;;;;;15.57;10.82;;;26.30;99.90;;;;;;5247448;28;20037;-72
2023/07/15 05:54:42;;;;;;;15.15;8.55;;;26.50;99.90;;;;;;5247255;28;20766;-72
2023/07/15 05:57:13;;;;;;;15.30;8.02;;;26.60;99.90;;;;;;5247409;28;20060;-72
2023/07/15 05:59:45;;;;;;;13.80;7.57;;;26.50;99.90;;;;;;5247349;28;20396;-72
2023/07/15 06:02:15;;;;;;;10.00;7.32;;;26.60;99.90;;;;;;5247426;28;20446;-72
2023/07/15 06:04:46;;;;;;;10.75;6.68;;;26.80;99.90;;;;;;5247272;28;20095;-72
2023/07/15 06:07:17;;;;;;;12.60;7.20;;;26.90;99.90;;;;;;5247300;28;20099;-72
2023/07/15 06:09:54;;;;;;;16.48;7.55;;;26.90;99.90;;;;;;5247292;28;20025;-72
2023/07/15 06:12:24;;;;;;;10.93;8.63;;;27.00;99.90;;;;;;5247062;28;20098;-72
2023/07/15 06:14:56;;;;;;;13.02;8.68;;;27.10;99.90;;;;;;5247234;28;20444;-72
2023/07/15 06:17:27;;;;;;;14.95;9.52;;;27.10;99.90;;;;;;5247519;28;20016;-72
2023/07/15 06:19:57;;;;;;;15.40;10.52;;;27.30;99.90;;;;;;5247500;28;20206;-72
2023/07/15 06:22:28;;;;;;;12.65;9.98;;;27.30;99.90;;;;;;5247404;28;20028;-71
2023/07/15 06:24:59;;;;;;;12.57;9.40;;;27.30;99.90;;;;;;5246954;28;20060;-71
2023/07/15 06:27:30;;;;;;;12.57;6.95;;;27.00;99.90;;;;;;5247177;28;20013;-70
2023/07/15 06:30:02;;;;;;;13.10;8.30;;;27.30;99.90;;;;;;5247082;28;20530;-70
2023/07/15 06:32:33;;;;;;;13.20;8.10;;;27.50;99.90;;;;;;5246897;28;20045;-70
2023/07/15 06:35:04;;;;;;;10.63;8.30;;;27.40;99.90;;;;;;5247118;28;20035;-70
2023/07/15 06:37:36;;;;;;;17.33;10.95;;;27.40;99.90;;;;;;5247017;28;20024;-70
2023/07/15 06:40:07;;;;;;;12.00;9.80;;;27.30;99.90;;;;;;5247010;28;20032;-70
2023/07/15 06:42:38;;;;;;;13.18;11.40;;;27.60;99.90;;;;;;5247015;28;20036;-70
2023/07/15 06:45:09;;;;;;;18.70;16.88;;;27.70;99.90;;;;;;5245754;28;20380;-70
2023/07/15 06:47:40;;;;;;;17.67;16.05;;;27.90;99.90;;;;;;5246977;28;20100;-71
2023/07/15 06:50:10;;;;;;;17.17;13.52;;;28.00;99.90;;;;;;5246819;28;20470;-70
2023/07/15 06:52:41;;;;;;;14.23;10.73;;;28.00;99.90;;;;;;5246775;28;20033;-70
2023/07/15 06:55:12;;;;;;;16.92;10.75;;;28.10;99.90;;;;;;5248530;28;20035;-71
2023/07/15 06:57:43;;;;;;;11.32;7.60;;;28.10;99.90;;;;;;5251043;28;20016;-70
2023/07/15 07:00:14;;;;;;;11.48;7.03;;;28.20;99.90;;;;;;5250803;28;20024;-70
2023/07/15 07:02:45;;;;;;;13.98;6.22;;;28.20;99.90;;;;;;5250853;28;20024;-70
2023/07/15 07:05:16;;;;;;;8.55;5.45;;;28.20;99.90;;;;;;5250878;28;20024;-70
2023/07/15 07:07:47;;;;;;;12.35;5.40;;;28.40;99.90;;;;;;5250867;28;20008;-70
2023/07/15 07:10:18;;;;;;;12.57;5.50;;;28.30;99.90;;;;;;5250655;28;20025;-70
2023/07/15 07:12:49;;;;;;;9.02;5.65;;;28.50;99.90;;;;;;5250555;28;20036;-70
2023/07/15 07:15:20;;;;;;;7.55;5.93;;;28.40;99.90;;;;;;5250491;28;20052;-70
2023/07/15 07:17:50;;;;;;;11.90;6.63;;;28.50;99.90;;;;;;5250565;28;20024;-70
2023/07/15 07:20:21;;;;;;;8.52;6.57;;;28.50;99.90;;;;;;5250479;28;20017;-70
2023/07/15 07:22:52;;;;;;;10.50;6.15;;;28.60;99.90;;;;;;5250137;28;20072;-70
2023/07/15 07:25:23;;;;;;;11.77;6.90;;;28.60;99.90;;;;;;5250160;28;20092;-73
2023/07/15 07:27:54;;;;;;;13.70;8.40;;;28.90;99.90;;;;;;5250338;28;20040;-72
2023/07/15 07:30:25;;;;;;;14.90;13.43;;;29.00;99.90;;;;;;5250082;28;20405;-72
2023/07/15 07:32:55;;;;;;;17.38;15.93;;;28.90;99.90;;;;;;5250113;28;20044;-72
2023/07/15 07:35:26;;;;;;;20.45;18.70;;;29.00;99.90;;;;;;5250256;28;20051;-73
2023/07/15 07:37:57;;;;;;;17.27;15.73;;;29.00;99.90;;;;;;5250393;28;20058;-72
2023/07/15 07:40:28;;;;;;;15.15;11.60;;;29.10;99.90;;;;;;5250528;28;20052;-73
2023/07/15 07:42:58;;;;;;;12.70;9.23;;;29.10;99.90;;;;;;5250181;28;20055;-73
2023/07/15 07:45:29;;;;;;;18.15;8.35;;;29.00;99.90;;;;;;5250039;28;20017;-72
2023/07/15 07:48:00;;;;;;;11.60;7.22;;;29.10;99.90;;;;;;5250049;28;20451;-73
2023/07/15 07:50:33;;;;;;;8.43;6.10;;;29.20;99.90;;;;;;5249921;28;20349;-72
2023/07/15 07:53:03;;;;;;;12.23;6.00;;;29.40;99.90;;;;;;5249666;28;20469;-73
2023/07/15 07:55:34;;;;;;;8.82;6.43;;;29.10;99.90;;;;;;5249717;28;20111;-73
2023/07/15 07:58:05;;;;;;;10.18;6.95;;;29.20;99.90;;;;;;5249850;28;20358;-72
2023/07/15 08:00:36;;;;;;;12.05;6.72;;;29.20;99.90;;;;;;5249831;28;20086;-72
2023/07/15 08:03:07;;;;;;;7.90;6.93;;;29.40;99.90;;;;;;5249703;28;20067;-72
2023/07/15 08:05:45;;;;;;;7.93;5.93;;;29.60;99.90;;;;;;5249628;28;20032;-72
2023/07/15 08:08:16;;;;;;;9.60;6.38;;;29.60;99.90;;;;;;5249689;28;20024;-72
2023/07/15 08:10:47;;;;;;;10.20;6.68;;;29.70;99.90;;;;;;5249539;28;20036;-72
2023/07/15 08:13:18;;;;;;;15.73;7.68;;;29.70;99.90;;;;;;5249425;28;20029;-72
2023/07/15 08:15:50;;;;;;;13.90;7.25;;;29.70;99.90;;;;;;5249603;28;20024;-72
2023/07/15 08:18:21;;;;;;;8.65;6.95;;;29.70;99.90;;;;;;5249490;28;20111;-72
2023/07/15 08:20:51;;;;;;;12.18;6.95;;;29.60;99.90;;;;;;5249341;28;20115;-73
2023/07/15 08:23:22;;;;;;;10.13;7.03;;;29.70;99.90;;;;;;5248791;28;20090;-72
2023/07/15 08:25:54;;;;;;;9.05;6.03;;;29.80;99.90;;;;;;5249255;28;20079;-72
2023/07/15 08:28:24;;;;;;;12.82;6.25;;;29.60;99.90;;;;;;5249059;28;20032;-72
2023/07/15 08:30:55;;;;;;;12.13;5.30;;;29.70;99.90;;;;;;5249183;28;20070;-72
2023/07/15 08:33:26;;;;;;;19.10;5.22;;;29.90;99.90;;;;;;5248966;28;20037;-72
2023/07/15 08:35:57;;;;;;;11.57;4.93;;;30.00;99.90;;;;;;5249083;28;20139;-71
2023/07/15 08:38:27;;;;;;;8.38;4.18;;;29.80;99.90;;;;;;5249008;28;20024;-72
2023/07/15 08:41:00;;;;;;;7.55;4.10;;;30.00;99.90;;;;;;5248913;28;20499;-72
2023/07/15 08:43:31;;;;;;;8.70;4.40;;;30.00;99.90;;;;;;5248817;28;20013;-72
2023/07/15 08:46:25;;;;;;;8.63;4.28;;;30.10;99.90;;;;;;5248837;28;20029;-72
2023/07/15 08:48:57;;;;;;;10.48;4.40;;;30.10;99.90;;;;;;5248999;28;20024;-72
2023/07/15 08:51:38;;;;;;;10.50;4.65;;;30.10;99.90;;;;;;5248764;28;20017;-72
2023/07/15 08:54:10;;;;;;;6.55;4.22;;;30.20;99.90;;;;;;5706548;23;20053;-71
2023/07/15 08:56:41;;;;;;;7.32;4.20;;;30.30;99.90;;;;;;5248756;28;20020;-71
2023/07/15 08:59:16;;;;;;;6.70;4.93;;;30.20;99.90;;;;;;5248855;28;20419;-71
2023/07/15 09:01:47;;;;;;;8.32;4.40;;;30.40;99.90;;;;;;5248475;28;20032;-71
2023/07/15 09:04:18;;;;;;;12.20;5.10;;;30.40;99.90;;;;;;5248609;28;20025;-71
2023/07/15 09:06:50;;;;;;;8.45;4.90;;;30.50;99.90;;;;;;5248562;28;20024;-71
2023/07/15 09:09:42;;;;;;;8.80;4.80;;;30.30;99.90;;;;;;5248421;28;20464;-71
2023/07/15 09:12:13;;;;;;;7.07;5.30;;;30.70;99.90;;;;;;5248202;28;20032;-71
2023/07/15 09:14:45;;;;;;;19.20;5.05;;;29.80;99.90;;;;;;5248289;28;20035;-71
2023/07/15 09:17:17;;;;;;;10.70;5.72;;;30.30;99.90;;;;;;5247705;28;20101;-71
2023/07/15 09:19:48;;;;;;;9.45;6.13;;;30.70;99.90;;;;;;5248137;28;20021;-71
2023/07/15 09:22:20;;;;;;;10.45;6.40;;;30.70;99.90;;;;;;5247943;28;20039;-71
2023/07/15 09:24:50;;;;;;;9.48;5.68;;;30.60;99.90;;;;;;5247962;28;20016;-71
2023/07/15 09:27:25;;;;;;;12.88;6.10;;;29.80;99.90;;;;;;5248137;28;20039;-71
2023/07/15 09:29:56;;;;;;;8.20;5.82;;;30.60;99.90;;;;;;5247814;28;20108;-71
2023/07/15 09:32:31;;;;;;;10.60;5.60;;;30.50;99.90;;;;;;5247818;28;20115;-70
2023/07/15 09:35:03;;;;;;;9.98;5.35;;;30.50;99.90;;;;;;5247815;28;20472;-71
2023/07/15 09:37:34;;;;;;;31.92;6.57;;;30.00;99.90;;;;;;5247754;28;20033;-71
2023/07/15 09:40:08;;;;;;;9.88;6.20;;;30.60;99.90;;;;;;5247621;28;20365;-71
2023/07/15 09:42:51;;;;;;;11.70;5.95;;;30.70;99.90;;;;;;5247569;28;20052;-71
2023/07/15 09:45:34;;;;;;;9.50;6.80;;;30.80;99.90;;;;;;5247537;28;20032;-71
2023/07/15 09:48:16;;;;;;;9.73;6.78;;;31.00;99.90;;;;;;5247516;28;20021;-71
2023/07/15 09:50:48;;;;;;;7.32;6.30;;;31.00;99.90;;;;;;5247566;28;20030;-71
2023/07/15 09:53:19;;;;;;;7.35;6.40;;;31.00;99.90;;;;;;5247023;28;20041;-71
2023/07/15 09:55:51;;;;;;;7.57;5.47;;;31.00;99.90;;;;;;5247340;28;20028;-71
2023/07/15 09:58:23;;;;;;;13.70;5.50;;;30.60;99.90;;;;;;5247324;28;20031;-71
2023/07/15 10:01:11;;;;;;;11.27;5.60;;;31.00;99.90;;;;;;5247272;28;20107;-71
2023/07/15 10:03:45;;;;;;;8.65;6.20;;;30.90;99.90;;;;;;5247430;28;20021;-71
2023/07/15 10:06:17;;;;;;;9.90;6.05;;;31.10;99.90;;;;;;5247307;28;20024;-71
2023/07/15 10:08:48;;;;;;;10.98;5.45;;;30.80;99.90;;;;;;5247380;28;20066;-71
2023/07/15 10:11:19;;;;;;;8.45;5.75;;;30.80;99.90;;;;;;5247527;28;20025;-71
2023/07/15 10:13:51;;;;;;;10.55;5.82;;;31.00;99.90;;;;;;5247509;28;20369;-70
2023/07/15 10:16:22;;;;;;;10.00;5.55;;;31.00;99.90;;;;;;5247311;28;20020;-71
2023/07/15 10:18:55;;;;;;;7.53;5.88;;;31.00;99.90;;;;;;5247144;28;20034;-71
2023/07/15 10:21:26;;;;;;;9.15;6.82;;;31.10;99.90;;;;;;5247295;28;20017;-71
2023/07/15 10:24:12;;;;;;;6.82;5.95;;;31.30;99.90;;;;;;5247096;28;20449;-71
2023/07/15 10:26:49;;;;;;;6.47;5.20;;;31.40;99.90;;;;;;5247194;28;20031;-71
2023/07/15 10:29:23;;;;;;;8.88;5.05;;;31.50;99.90;;;;;;5246098;28;20103;-71
2023/07/15 10:32:14;;;;;;;12.73;6.10;;;31.00;99.90;;;;;;5247065;28;20477;-70
2023/07/15 10:34:50;;;;;;;23.50;6.70;;;31.00;99.90;;;;;;5245824;28;20075;-71
2023/07/15 10:37:20;;;;;;;7.45;5.18;;;31.20;99.90;;;;;;5247112;28;20052;-71
2023/07/15 10:39:51;;;;;;;6.43;5.20;;;31.40;99.90;;;;;;5246960;28;20405;-71
2023/07/15 10:42:22;;;;;;;8.63;5.38;;;31.40;99.90;;;;;;5245325;28;20040;-71
2023/07/15 10:44:54;;;;;;;13.75;5.18;;;31.30;99.90;;;;;;5237778;28;20013;-71
2023/07/15 10:47:27;;;;;;;9.75;5.20;;;31.50;99.90;;;;;;5233041;28;20048;-70
2023/07/15 10:49:58;;;;;;;7.97;5.07;;;31.50;99.90;;;;;;5229127;28;20036;-71
2023/07/15 10:52:30;;;;;;;7.60;5.50;;;31.70;99.90;;;;;;5234537;28;20039;-71
2023/07/15 10:55:00;;;;;;;7.07;5.47;;;31.40;99.90;;;;;;5232214;28;20391;-71
2023/07/15 10:57:31;;;;;;;7.35;5.75;;;31.50;99.90;;;;;;5231806;28;20116;-72
2023/07/15 11:00:06;;;;;;;7.22;5.95;;;31.40;99.90;;;;;;5226112;28;20040;-71
2023/07/15 11:02:37;;;;;;;10.93;5.07;;;31.20;99.90;;;;;;5236004;28;20051;-71
2023/07/15 11:05:08;;;;;;;11.85;5.35;;;31.10;99.90;;;;;;5243599;28;20021;-70
2023/07/15 11:07:39;;;;;;;8.77;5.32;;;31.50;99.90;;;;;;5235987;28;20396;-71
2023/07/15 11:10:12;;;;;;;15.63;5.47;;;31.10;99.90;;;;;;5241431;28;20032;-71
2023/07/15 11:12:42;;;;;;;8.50;5.10;;;31.30;99.90;;;;;;5236050;28;20055;-71
2023/07/15 11:15:19;;;;;;;9.77;5.60;;;31.50;99.90;;;;;;5240725;28;20036;-71
2023/07/15 11:17:50;;;;;;;11.10;5.30;;;31.70;99.90;;;;;;5235241;28;20090;-71
2023/07/15 11:20:21;;;;;;;6.75;4.45;;;31.40;99.90;;;;;;5246449;28;20033;-72
2023/07/15 11:22:52;;;;;;;9.50;4.78;;;31.50;99.90;;;;;;5234532;28;20025;-71
2023/07/15 11:25:23;;;;;;;6.32;5.00;;;31.60;99.90;;;;;;5232610;28;20100;-70
2023/07/15 11:27:57;;;;;;;14.32;5.50;;;31.40;99.90;;;;;;5230802;28;20032;-71
2023/07/15 11:30:42;;;;;;;5.65;4.40;;;31.50;99.90;;;;;;5246467;28;20032;-71
2023/07/15 11:33:13;;;;;;;7.22;4.35;;;31.80;99.90;;;;;;5246491;28;20036;-71
2023/07/15 11:35:45;;;;;;;8.10;4.90;;;31.70;99.90;;;;;;5246645;28;20381;-71
2023/07/15 11:38:32;;;;;;;8.88;4.47;;;31.70;99.90;;;;;;5211427;28;20025;-77
2023/07/15 11:41:03;;;;;;;7.63;4.88;;;31.50;99.90;;;;;;5208429;28;20045;-78
2023/07/15 11:43:34;;;;;;;10.68;5.07;;;31.60;99.90;;;;;;5209488;28;20037;-78
2023/07/15 11:46:05;;;;;;;7.25;4.40;;;31.30;99.90;;;;;;5209144;28;20013;-76
2023/07/15 11:48:36;;;;;;;6.05;4.35;;;31.40;99.90;;;;;;5208207;28;20034;-78
2023/07/15 11:51:07;;;;;;;6.90;4.78;;;31.50;99.90;;;;;;5208320;28;20390;-73
2023/07/15 11:53:41;;;;;;;8.10;4.90;;;31.80;99.90;;;;;;5209091;28;20060;-78
2023/07/15 11:56:34;;;;;;;12.10;4.85;;;31.40;99.90;;;;;;5225474;28;20118;-86
2023/07/15 11:59:11;;;;;;;6.50;4.70;;;31.40;99.90;;;;;;5214791;28;20041;-78
2023/07/15 12:01:41;;;;;;;7.63;4.78;;;31.30;99.90;;;;;;5214921;28;20029;-87
2023/07/15 12:04:14;;;;;;;14.13;4.75;;;31.50;99.90;;;;;;5213069;28;20171;-86
2023/07/15 12:06:52;;;;;;;7.05;5.10;;;31.70;99.90;;;;;;5222375;28;20036;-81
2023/07/15 12:09:24;;;;;;;6.40;4.70;;;31.50;99.90;;;;;;5216076;28;20045;-77
2023/07/15 12:11:55;;;;;;;5.97;3.92;;;31.40;99.90;;;;;;5222210;28;20040;-86
2023/07/15 12:14:30;;;;;;;6.93;4.35;;;31.50;99.90;;;;;;5227119;28;20041;-79
2023/07/15 12:17:02;;;;;;;8.52;4.30;;;31.90;99.90;;;;;;5216737;28;20022;-87
2023/07/15 12:19:33;;;;;;;6.18;3.53;;;31.60;99.90;;;;;;5221613;28;20044;-81
2023/07/15 12:22:04;;;;;;;7.65;3.80;;;31.60;99.90;;;;;;5216390;28;20032;-81
2023/07/15 12:24:38;;;;;;;9.98;4.07;;;31.60;99.90;;;;;;5213791;28;20485;-81
2023/07/15 12:27:15;;;;;;;6.93;3.85;;;31.40;99.90;;;;;;5221227;28;20029;-84
2023/07/15 12:29:48;;;;;;;7.82;4.25;;;31.60;99.90;;;;;;5219993;28;20045;-80
2023/07/15 12:32:22;;;;;;;6.10;3.97;;;31.80;99.90;;;;;;5228714;28;20461;-80
2023/07/15 12:34:55;;;;;;;6.70;4.32;;;31.40;99.90;;;;;;5228491;28;20075;-81
2023/07/15 12:37:27;;;;;;;8.30;3.80;;;31.40;99.90;;;;;;5208998;28;20036;-84
2023/07/15 12:40:00;;;;;;;9.52;4.00;;;31.70;99.90;;;;;;5208548;28;20048;-80
2023/07/15 12:42:35;;;;;;;11.55;4.40;;;31.40;99.90;;;;;;5207973;28;20036;-83
2023/07/15 12:45:11;;;;;;;12.18;3.97;;;31.80;99.90;;;;;;5207723;28;20021;-81
2023/07/15 12:47:41;;;;;;;7.38;3.72;;;31.50;99.90;;;;;;5206953;28;20063;-79
2023/07/15 12:50:12;;;;;;;10.20;4.10;;;31.50;99.90;;;;;;5206712;28;20059;-80
2023/07/15 12:52:43;;;;;;;7.88;3.95;;;31.50;99.90;;;;;;5209356;28;20037;-78
2023/07/15 12:55:14;;;;;;;10.32;4.55;;;31.50;99.90;;;;;;5227428;28;20067;-79
2023/07/15 12:57:44;;;;;;;5.50;3.30;;;31.60;99.90;;;;;;5213877;28;20425;-80
2023/07/15 13:00:16;;;;;;;9.10;4.20;;;31.50;99.90;;;;;;5208177;28;20538;-76
2023/07/15 13:02:47;;;;;;;4.05;3.40;;;31.40;99.90;;;;;;5207763;28;20478;-79